Time;durP1;ratioP1;P1;durP2;ratioP2;P2;SDS_P1;SDS_P2;PMS_P1;PMS_P2;Temp;Humidity;BMP_temperature;BMP_pressure;BME280_temperature;BME280_humidity;BME280_pressure;Samples;Min_cycle;Max_cycle;Signal;HPM_P1;HPM_P2
2022/05/27 00:00:26;;;;;;;6.78;1.60;;;13.40;99.90;;;;;;4994151;28;20146;-75
2022/05/27 00:02:52;;;;;;;10.02;1.77;;;13.40;99.90;;;;;;4996966;28;20109;-75
2022/05/27 00:05:19;;;;;;;10.23;1.77;;;13.30;99.90;;;;;;4996884;28;20026;-75
2022/05/27 00:07:44;;;;;;;15.38;1.52;;;13.20;99.90;;;;;;4996790;28;20029;-75
2022/05/27 00:10:12;;;;;;;6.78;1.65;;;13.00;99.90;;;;;;4996562;28;20027;-75
2022/05/27 00:12:38;;;;;;;13.27;2.35;;;12.90;99.90;;;;;;4996601;28;20651;-75
2022/05/27 00:15:05;;;;;;;13.90;2.45;;;12.80;99.90;;;;;;4996554;28;20030;-75
2022/05/27 00:17:30;;;;;;;11.88;1.75;;;12.90;99.90;;;;;;4996808;28;20018;-75
2022/05/27 00:19:56;;;;;;;8.70;1.85;;;12.80;99.90;;;;;;4996443;28;20023;-75
2022/05/27 00:22:21;;;;;;;10.73;2.28;;;12.80;99.90;;;;;;4996336;28;20022;-75
2022/05/27 00:24:47;;;;;;;9.05;2.05;;;12.80;99.90;;;;;;4996507;28;20570;-75
2022/05/27 00:27:12;;;;;;;7.55;1.65;;;12.80;99.90;;;;;;4996219;28;20026;-75
2022/05/27 00:29:38;;;;;;;12.95;2.22;;;12.80;99.90;;;;;;4979697;28;20027;-75
2022/05/27 00:32:05;;;;;;;11.40;2.35;;;12.70;99.90;;;;;;4976688;28;20482;-75
2022/05/27 00:34:31;;;;;;;14.50;1.98;;;12.60;99.90;;;;;;4976809;28;20023;-75
2022/05/27 00:36:57;;;;;;;8.93;1.48;;;12.60;99.90;;;;;;4976520;28;20379;-75
2022/05/27 00:39:23;;;;;;;11.70;3.03;;;12.40;99.90;;;;;;4976543;28;20073;-75
2022/05/27 00:41:48;;;;;;;11.85;1.98;;;12.30;99.90;;;;;;4976603;28;20027;-75
2022/05/27 00:44:14;;;;;;;8.32;2.10;;;12.20;99.90;;;;;;4976648;28;20113;-75
2022/05/27 00:46:42;;;;;;;7.13;1.73;;;12.10;99.90;;;;;;4976535;28;20046;-75
2022/05/27 00:49:16;;;;;;;7.70;1.85;;;12.00;99.90;;;;;;4976634;28;20049;-75
2022/05/27 00:51:50;;;;;;;6.63;1.65;;;11.90;99.90;;;;;;4976476;28;20494;-75
2022/05/27 00:54:19;;;;;;;9.25;2.10;;;11.80;99.90;;;;;;4976469;28;20109;-75
2022/05/27 00:56:51;;;;;;;8.50;1.75;;;11.80;99.90;;;;;;4976339;28;20147;-75
2022/05/27 00:59:41;;;;;;;4.18;1.52;;;11.80;99.90;;;;;;4976079;28;20054;-75
2022/05/27 01:02:07;;;;;;;7.90;1.55;;;11.80;99.90;;;;;;4974933;28;20034;-75
2022/05/27 01:04:34;;;;;;;10.32;2.08;;;11.70;99.90;;;;;;4976317;28;20023;-75
2022/05/27 01:06:59;;;;;;;12.00;1.80;;;11.80;99.90;;;;;;4976154;28;20038;-75
2022/05/27 01:09:28;;;;;;;8.48;2.17;;;11.70;99.90;;;;;;4976217;28;20026;-75
2022/05/27 01:12:17;;;;;;;10.98;2.15;;;11.70;99.90;;;;;;4976431;28;20146;-75
2022/05/27 01:15:01;;;;;;;8.95;1.70;;;11.60;99.90;;;;;;4976261;28;20022;-75
2022/05/27 01:17:51;;;;;;;10.27;2.05;;;11.50;99.90;;;;;;4976201;28;20106;-75
2022/05/27 01:20:30;;;;;;;14.50;1.92;;;11.40;99.90;;;;;;4976064;28;20029;-75
2022/05/27 01:23:14;;;;;;;8.70;1.77;;;11.50;99.90;;;;;;4975869;28;20039;-75
2022/05/27 01:26:06;;;;;;;9.40;2.28;;;11.40;99.90;;;;;;4975856;28;20035;-75
2022/05/27 01:28:57;;;;;;;10.05;2.88;;;11.40;99.90;;;;;;4975791;28;20038;-75
2022/05/27 01:32:00;;;;;;;12.18;2.47;;;11.30;99.90;;;;;;4975709;28;20047;-75
2022/05/27 01:34:52;;;;;;;13.55;2.55;;;11.10;99.90;;;;;;4975725;28;20023;-75
2022/05/27 01:37:41;;;;;;;15.13;2.55;;;11.10;99.90;;;;;;4975583;28;20668;-75
2022/05/27 01:40:30;;;;;;;12.45;2.10;;;11.00;99.90;;;;;;4975638;28;20463;-75
2022/05/27 01:43:14;;;;;;;11.77;2.30;;;10.80;99.90;;;;;;4975550;28;20023;-75
2022/05/27 01:45:55;;;;;;;9.05;1.70;;;10.70;99.90;;;;;;4975582;28;20031;-75
2022/05/27 01:48:29;;;;;;;8.13;1.83;;;10.70;99.90;;;;;;4975337;28;20037;-75
2022/05/27 01:51:25;;;;;;;10.27;2.00;;;10.60;99.90;;;;;;4975473;28;20109;-75
2022/05/27 01:54:11;;;;;;;8.55;2.25;;;10.50;99.90;;;;;;4975294;28;20034;-75
2022/05/27 01:56:42;;;;;;;12.85;3.67;;;10.40;99.90;;;;;;4975460;28;20173;-75
2022/05/27 01:59:20;;;;;;;8.30;2.05;;;10.30;99.90;;;;;;4974832;28;20515;-75
2022/05/27 02:01:52;;;;;;;9.20;2.17;;;10.20;99.90;;;;;;4957795;28;20042;-75
2022/05/27 02:04:25;;;;;;;13.45;2.10;;;10.10;99.90;;;;;;4975215;28;20142;-75
2022/05/27 02:06:58;;;;;;;9.43;2.05;;;10.00;99.90;;;;;;4975088;28;20023;-75
2022/05/27 02:09:40;;;;;;;10.40;2.00;;;10.00;99.90;;;;;;4975106;28;20022;-75
2022/05/27 02:12:14;;;;;;;8.23;1.90;;;9.90;99.90;;;;;;4974962;28;20427;-75
2022/05/27 02:14:58;;;;;;;8.55;2.05;;;9.90;99.90;;;;;;4974865;28;20177;-75
2022/05/27 02:17:30;;;;;;;12.10;2.10;;;10.00;99.90;;;;;;4975050;28;20019;-75
2022/05/27 02:20:01;;;;;;;7.90;1.70;;;10.00;99.90;;;;;;4994240;28;20037;-75
2022/05/27 02:22:36;;;;;;;9.05;1.83;;;10.10;99.90;;;;;;4994294;28;20065;-75
2022/05/27 02:25:13;;;;;;;10.00;2.63;;;10.10;99.90;;;;;;4974756;28;20077;-75
2022/05/27 02:27:53;;;;;;;7.53;1.95;;;10.20;99.90;;;;;;4974761;28;20042;-75
2022/05/27 02:30:23;;;;;;;7.88;1.80;;;10.20;99.90;;;;;;4974656;28;20031;-75
2022/05/27 02:35:07;;;;;;;13.23;2.15;;;10.20;99.90;;;;;;4974726;28;20596;-75
2022/05/27 02:35:44;;;;;;;10.13;2.05;;;10.30;99.90;;;;;;4974482;28;20068;-75
2022/05/27 02:38:10;;;;;;;10.30;2.35;;;10.30;99.90;;;;;;4974781;28;20031;-75
2022/05/27 02:41:09;;;;;;;13.25;2.30;;;10.30;99.90;;;;;;4974309;28;20109;-75
2022/05/27 02:43:51;;;;;;;10.32;1.92;;;10.30;99.90;;;;;;4974488;28;20033;-75
2022/05/27 02:46:38;;;;;;;7.43;1.73;;;10.30;99.90;;;;;;4974375;28;20030;-75
2022/05/27 02:49:17;;;;;;;14.05;2.40;;;10.30;99.90;;;;;;4974412;28;20023;-75
2022/05/27 02:52:04;;;;;;;11.95;1.85;;;10.20;99.90;;;;;;4974301;28;20034;-75
2022/05/27 02:54:36;;;;;;;10.88;1.77;;;10.20;99.90;;;;;;4974244;28;20026;-75
2022/05/27 02:57:08;;;;;;;11.57;1.95;;;10.10;99.90;;;;;;4974201;28;20023;-75
2022/05/27 02:59:35;;;;;;;11.52;2.42;;;10.10;99.90;;;;;;4973790;28;20394;-75
2022/05/27 03:02:09;;;;;;;6.78;1.48;;;10.20;99.90;;;;;;4974297;28;20015;-75
2022/05/27 03:04:38;;;;;;;10.30;2.10;;;10.30;99.90;;;;;;4974036;28;20026;-75
2022/05/27 03:07:37;;;;;;;10.13;1.75;;;10.30;99.90;;;;;;4973927;28;20029;-76
2022/05/27 03:10:12;;;;;;;8.70;1.95;;;10.30;56.60;;;;;;4973742;28;20030;-76
2022/05/27 03:12:43;;;;;;;8.70;1.27;;;10.20;1.00;;;;;;4973947;28;20535;-75
2022/05/27 03:15:25;;;;;;;9.98;1.70;;;10.20;1.00;;;;;;4973920;28;20521;-75
2022/05/27 03:18:28;;;;;;;8.95;1.48;;;10.00;32.50;;;;;;4973860;28;20026;-75
2022/05/27 03:21:26;;;;;;;7.32;1.73;;;10.00;16.50;;;;;;4973908;28;20062;-75
2022/05/27 03:23:57;;;;;;;4.90;1.30;;;9.90;93.30;;;;;;4973565;28;20058;-75
2022/05/27 03:26:40;;;;;;;7.35;1.75;;;9.70;84.10;;;;;;4973232;28;20027;-75
2022/05/27 03:29:27;;;;;;;8.25;1.80;;;9.70;99.90;;;;;;4973693;28;20023;-75
2022/05/27 03:32:28;;;;;;;8.32;1.65;;;9.60;99.90;;;;;;4973734;28;20031;-75
2022/05/27 03:34:57;;;;;;;;;;;9.50;99.90;;;;;;4943678;28;20034;-75
2022/05/27 03:37:29;;;;;;;10.20;1.55;;;9.60;70.00;;;;;;4973709;28;19954;-75
2022/05/27 03:40:10;;;;;;;5.43;1.33;;;9.70;17.60;;;;;;4973530;28;20138;-75
2022/05/27 03:42:37;;;;;;;5.28;1.40;;;9.80;20.20;;;;;;4973721;28;20031;-76
2022/05/27 03:45:12;;;;;;;9.90;1.42;;;9.80;92.30;;;;;;4973561;28;20023;-75
2022/05/27 03:47:41;;;;;;;8.60;1.80;;;9.90;67.50;;;;;;4973655;28;20061;-75
2022/05/27 03:50:12;;;;;;;4.47;1.63;;;10.00;75.80;;;;;;4973422;28;20029;-75
2022/05/27 03:52:42;;;;;;;4.40;1.45;;;10.10;63.80;;;;;;4973628;28;20352;-75
2022/05/27 03:55:09;;;;;;;11.43;1.77;;;10.30;53.80;;;;;;4973493;28;20023;-75
2022/05/27 03:57:35;;;;;;;7.85;1.33;;;10.30;66.20;;;;;;4973563;28;20018;-75
2022/05/27 04:00:01;;;;;;;10.95;1.38;;;10.30;72.70;;;;;;4973152;28;20055;-75
2022/05/27 04:02:26;;;;;;;6.65;1.75;;;10.50;46.70;;;;;;4973370;28;20031;-75
2022/05/27 04:04:52;;;;;;;6.47;1.40;;;10.70;35.30;;;;;;4973290;28;20027;-76
2022/05/27 04:07:18;;;;;;;7.43;1.77;;;11.00;1.00;;;;;;4973358;28;20033;-76
2022/05/27 04:09:43;;;;;;;9.85;2.00;;;11.10;1.00;;;;;;4973253;28;20545;-76
2022/05/27 04:12:09;;;;;;;7.07;1.70;;;11.10;1.00;;;;;;4973353;28;20102;-75
2022/05/27 04:14:35;;;;;;;6.97;2.22;;;11.10;6.50;;;;;;4973357;28;20027;-75
2022/05/27 04:19:45;;;;;;;11.57;2.10;;;12.10;1.00;;;;;;4973342;28;20398;-75
2022/05/27 04:22:11;;;;;;;9.93;1.83;;;12.40;1.00;;;;;;4973296;28;20664;-75
2022/05/27 04:24:36;;;;;;;10.20;1.90;;;12.00;1.00;;;;;;4973278;28;20026;-75
2022/05/27 04:27:28;;;;;;;12.50;1.95;;;11.90;1.00;;;;;;4973246;28;20029;-75
2022/05/27 04:29:54;;;;;;;7.07;1.45;;;11.90;1.00;;;;;;4969985;28;20053;-75
2022/05/27 04:32:21;;;;;;;7.13;1.55;;;11.70;1.00;;;;;;4973243;28;20106;-75
2022/05/27 04:34:48;;;;;;;7.55;1.70;;;11.80;1.00;;;;;;4955689;28;20390;-75
2022/05/27 04:37:14;;;;;;;10.35;1.80;;;11.80;1.00;;;;;;4975875;28;20021;-75
2022/05/27 04:39:39;;;;;;;8.00;1.58;;;11.80;1.00;;;;;;4976507;28;20035;-76
2022/05/27 04:42:06;;;;;;;6.68;1.80;;;11.90;99.90;;;;;;4976781;28;20374;-76
2022/05/27 04:44:33;;;;;;;4.85;1.50;;;11.80;99.90;;;;;;4976900;28;20026;-75
2022/05/27 04:46:58;;;;;;;10.13;2.33;;;12.00;99.90;;;;;;4996334;28;20022;-75
2022/05/27 04:52:08;;;;;;;6.57;1.48;;;12.50;99.90;;;;;;4996038;28;20041;-76
2022/05/27 04:54:33;;;;;;;7.22;1.70;;;12.60;99.90;;;;;;4995924;28;20026;-75
2022/05/27 04:56:59;;;;;;;8.18;1.67;;;12.80;99.90;;;;;;4995868;28;20029;-75
2022/05/27 04:59:25;;;;;;;13.68;1.85;;;12.60;99.90;;;;;;4995502;28;20050;-75
2022/05/27 05:01:51;;;;;;;6.80;1.55;;;14.00;99.90;;;;;;4995818;28;20382;-75
2022/05/27 05:04:16;;;;;;;10.93;2.22;;;13.90;99.90;;;;;;4996192;28;20371;-76
2022/05/27 05:06:43;;;;;;;8.00;1.45;;;13.50;99.90;;;;;;4995753;28;20459;-76
2022/05/27 05:09:09;;;;;;;9.80;1.75;;;13.30;99.90;;;;;;4996962;28;20027;-78
2022/05/27 05:11:35;;;;;;;10.88;1.70;;;13.20;99.90;;;;;;5006374;28;20037;-77
2022/05/27 05:14:00;;;;;;;6.05;1.63;;;13.30;99.90;;;;;;5006836;28;20490;-76
2022/05/27 05:16:26;;;;;;;10.48;2.33;;;13.40;99.90;;;;;;4995464;28;20040;-75
2022/05/27 05:18:52;;;;;;;6.78;1.45;;;14.40;99.90;;;;;;4995650;28;20033;-76
2022/05/27 05:21:17;;;;;;;8.57;1.65;;;14.30;99.90;;;;;;4996125;28;20055;-76
2022/05/27 05:23:43;;;;;;;9.32;1.55;;;14.50;99.90;;;;;;4995794;28;20033;-76
2022/05/27 05:26:09;;;;;;;13.43;2.03;;;14.70;99.90;;;;;;4995377;28;20030;-76
2022/05/27 05:28:35;;;;;;;8.73;1.63;;;15.00;99.90;;;;;;4995764;28;20445;-77
2022/05/27 05:31:00;;;;;;;5.75;1.45;;;14.70;99.90;;;;;;4995859;28;20486;-77
2022/05/27 05:33:26;;;;;;;9.10;1.60;;;15.70;99.90;;;;;;4995227;28;20032;-76
2022/05/27 05:35:51;;;;;;;8.27;1.90;;;15.60;99.90;;;;;;4995064;28;20045;-75
2022/05/27 05:38:19;;;;;;;8.00;1.55;;;15.60;99.90;;;;;;4995412;28;20030;-76
2022/05/27 05:40:45;;;;;;;6.32;1.02;;;15.10;99.90;;;;;;4995276;28;20061;-76
2022/05/27 05:43:11;;;;;;;7.07;1.38;;;16.50;99.90;;;;;;4994995;28;20061;-76
2022/05/27 05:45:36;;;;;;;10.60;2.00;;;17.10;99.90;;;;;;4995061;28;20068;-76
2022/05/27 05:48:02;;;;;;;7.32;1.75;;;18.60;99.90;;;;;;4992725;28;20029;-76
2022/05/27 05:50:28;;;;;;;10.85;2.05;;;21.00;99.90;;;;;;4994425;28;20458;-75
2022/05/27 05:52:54;;;;;;;8.95;1.90;;;19.80;99.90;;;;;;4994614;28;20041;-76
2022/05/27 05:55:20;;;;;;;8.77;1.38;;;23.20;99.90;;;;;;4994849;28;20663;-76
2022/05/27 05:57:48;;;;;;;6.97;1.17;;;22.30;99.90;;;;;;4994579;28;20068;-76
2022/05/27 06:00:18;;;;;;;8.70;1.52;;;20.40;99.90;;;;;;4994779;28;20046;-76
2022/05/27 06:02:44;;;;;;;8.07;1.70;;;21.80;99.90;;;;;;4994988;28;20023;-76
2022/05/27 06:05:10;;;;;;;6.13;1.92;;;20.30;99.90;;;;;;4994392;28;20469;-76
2022/05/27 06:07:36;;;;;;;4.90;1.10;;;22.20;99.90;;;;;;4975235;28;20106;-76
2022/05/27 06:10:02;;;;;;;10.57;1.88;;;21.90;99.90;;;;;;4979681;28;20022;-76
2022/05/27 06:12:33;;;;;;;7.75;1.77;;;25.00;99.90;;;;;;4994342;28;20029;-76
2022/05/27 06:15:00;;;;;;;6.25;1.38;;;26.80;99.90;;;;;;4994515;28;20022;-76
2022/05/27 06:17:27;;;;;;;8.80;2.03;;;25.20;99.90;;;;;;4994386;28;20138;-77
2022/05/27 06:19:52;;;;;;;6.80;1.15;;;27.00;99.90;;;;;;4994537;28;20034;-76
2022/05/27 06:22:18;;;;;;;9.95;1.50;;;26.30;99.90;;;;;;4996351;28;20363;-77
2022/05/27 06:24:44;;;;;;;6.60;1.48;;;29.90;99.90;;;;;;4994670;28;20026;-76
2022/05/27 06:27:09;;;;;;;5.72;1.75;;;28.20;99.90;;;;;;4993535;28;20058;-76
2022/05/27 06:35:03;;;;;;;6.65;1.40;;;20.60;99.90;;;;;;4994278;28;20576;-76
2022/05/27 06:37:29;;;;;;;7.80;1.60;;;20.10;99.90;;;;;;4993677;28;20121;-76
2022/05/27 06:39:54;;;;;;;7.35;1.67;;;25.00;99.90;;;;;;4993855;28;20030;-76
2022/05/27 06:42:22;;;;;;;6.13;1.35;;;28.10;99.90;;;;;;4993820;28;20030;-76
2022/05/27 06:44:49;;;;;;;7.45;2.17;;;28.80;99.90;;;;;;4994126;28;20069;-76
2022/05/27 06:47:14;;;;;;;7.43;1.63;;;25.90;99.90;;;;;;4994004;28;20027;-76
2022/05/27 06:49:44;;;;;;;7.07;2.05;;;26.30;99.90;;;;;;4993871;28;20109;-77
2022/05/27 06:52:10;;;;;;;5.47;1.08;;;29.10;99.90;;;;;;4994102;28;20023;-76
2022/05/27 06:54:36;;;;;;;7.72;1.77;;;30.10;99.90;;;;;;4993707;28;20033;-76
2022/05/27 06:57:04;;;;;;;12.65;1.50;;;30.70;99.90;;;;;;4993875;28;20030;-78
2022/05/27 06:59:30;;;;;;;8.57;1.85;;;29.00;99.90;;;;;;4993670;28;20542;-78
2022/05/27 07:01:56;;;;;;;7.18;2.20;;;25.10;99.90;;;;;;4993633;28;20025;-78
2022/05/27 07:04:21;;;;;;;8.60;1.90;;;22.40;99.90;;;;;;4994175;28;20034;-78
2022/05/27 07:06:48;;;;;;;6.68;1.50;;;23.00;99.90;;;;;;4978838;28;20038;-75
2022/05/27 07:09:18;;;;;;;10.50;1.75;;;27.50;99.90;;;;;;4993401;28;20061;-76
2022/05/27 07:11:45;;;;;;;6.30;1.40;;;28.10;99.90;;;;;;4993389;28;20077;-75
2022/05/27 07:14:12;;;;;;;7.40;1.95;;;29.60;99.90;;;;;;4993268;28;20042;-75
2022/05/27 07:16:38;;;;;;;4.43;1.45;;;29.60;99.90;;;;;;4993681;28;20019;-75
2022/05/27 07:19:04;;;;;;;9.13;1.83;;;30.90;99.90;;;;;;4975909;28;20019;-76
2022/05/27 07:21:29;;;;;;;10.80;1.80;;;30.90;99.90;;;;;;4993075;28;20458;-76
2022/05/27 07:23:56;;;;;;;5.85;1.23;;;30.80;99.90;;;;;;4993235;28;20028;-75
2022/05/27 07:26:23;;;;;;;5.50;1.50;;;31.00;99.90;;;;;;4993350;28;20018;-76
2022/05/27 07:28:49;;;;;;;6.70;1.33;;;32.20;99.90;;;;;;4993249;28;20054;-77
2022/05/27 07:31:17;;;;;;;6.13;1.33;;;32.00;99.90;;;;;;4993140;28;20058;-75
2022/05/27 07:33:43;;;;;;;7.25;1.70;;;26.80;99.90;;;;;;4993530;28;20473;-75
2022/05/27 07:36:08;;;;;;;8.88;1.73;;;30.20;99.90;;;;;;4993183;28;20057;-76
2022/05/27 07:38:34;;;;;;;5.63;1.73;;;31.10;99.90;;;;;;4993026;28;20061;-76
2022/05/27 07:40:59;;;;;;;8.80;1.88;;;32.40;99.90;;;;;;4993042;28;20063;-76
2022/05/27 07:43:25;;;;;;;7.07;1.73;;;33.10;99.90;;;;;;4993189;28;20027;-77
2022/05/27 07:45:51;;;;;;;5.75;1.70;;;32.50;99.90;;;;;;4993250;28;20367;-75
2022/05/27 07:48:17;;;;;;;9.82;1.75;;;33.60;99.90;;;;;;4992880;28;20106;-76
2022/05/27 07:50:43;;;;;;;8.23;1.50;;;31.80;99.90;;;;;;4992954;28;20105;-75
2022/05/27 07:53:09;;;;;;;6.63;1.42;;;32.00;99.90;;;;;;4992772;28;20030;-75
2022/05/27 07:55:34;;;;;;;3.92;0.90;;;31.70;99.90;;;;;;4993183;28;20031;-76
2022/05/27 07:58:00;;;;;;;8.48;1.75;;;28.90;99.90;;;;;;4992818;28;20054;-76
2022/05/27 08:00:28;;;;;;;6.18;1.35;;;31.00;99.90;;;;;;4992348;28;20055;-75
2022/05/27 08:02:55;;;;;;;5.70;1.45;;;31.30;99.90;;;;;;4992929;28;20026;-75
2022/05/27 08:05:24;;;;;;;7.60;1.48;;;31.70;99.90;;;;;;4992855;28;20029;-78
2022/05/27 08:07:50;;;;;;;8.70;1.83;;;30.30;99.90;;;;;;4992813;28;20027;-76
2022/05/27 08:10:19;;;;;;;7.57;1.50;;;29.00;99.90;;;;;;4991768;28;20037;-76
2022/05/27 08:12:44;;;;;;;6.18;1.65;;;28.50;99.90;;;;;;4995675;28;20022;-76
2022/05/27 08:15:12;;;;;;;4.00;1.20;;;26.80;99.90;;;;;;4995705;28;20018;-76
2022/05/27 08:17:38;;;;;;;6.72;1.08;;;28.30;99.90;;;;;;4995811;28;20429;-76
2022/05/27 08:20:08;;;;;;;6.13;1.52;;;28.10;99.90;;;;;;4995759;28;20034;-76
2022/05/27 08:22:34;;;;;;;7.50;1.20;;;32.00;99.90;;;;;;4995884;28;20026;-76
2022/05/27 08:24:59;;;;;;;7.88;1.52;;;32.70;99.90;;;;;;4996255;28;20109;-76
2022/05/27 08:27:25;;;;;;;6.43;1.33;;;31.90;99.90;;;;;;4996163;28;20106;-76
2022/05/27 08:29:51;;;;;;;6.57;1.48;;;28.80;99.90;;;;;;4996576;28;20039;-76
2022/05/27 08:32:16;;;;;;;5.88;1.35;;;28.90;99.90;;;;;;4996642;28;20022;-76
2022/05/27 08:40:30;;;;;;;7.75;1.70;;;27.50;99.90;;;;;;4995852;28;20040;-76
2022/05/27 08:43:01;;;;;;;6.68;1.50;;;25.30;99.90;;;;;;4996333;28;20027;-77
2022/05/27 08:45:35;;;;;;;8.15;1.50;;;29.30;99.90;;;;;;4996023;28;20036;-76
2022/05/27 08:48:06;;;;;;;6.13;1.40;;;32.00;99.90;;;;;;4996161;28;20149;-77
2022/05/27 08:50:45;;;;;;;7.93;1.45;;;32.20;99.90;;;;;;4995920;28;20042;-77
2022/05/27 08:53:22;;;;;;;;;;;32.70;99.90;;;;;;4996492;28;20479;-77
2022/05/27 09:01:57;;;;;;;6.30;1.30;;;30.70;99.90;;;;;;4976578;28;20109;-76
2022/05/27 09:04:34;;;;;;;9.45;1.98;;;27.70;99.90;;;;;;4976239;28;20019;-76
2022/05/27 09:07:30;;;;;;;4.90;1.10;;;29.80;99.90;;;;;;4976407;28;20118;-76
2022/05/27 09:09:57;;;;;;;7.03;1.80;;;28.90;99.90;;;;;;4975863;28;20019;-76
2022/05/27 09:13:10;;;;;;;6.28;1.35;;;32.20;99.90;;;;;;4976181;28;20035;-76
2022/05/27 09:15:47;;;;;;;7.25;1.60;;;25.70;99.90;;;;;;4972519;28;20123;-76
2022/05/27 09:18:46;;;;;;;7.07;1.33;;;24.90;99.90;;;;;;4976127;28;20034;-77
2022/05/27 09:21:41;;;;;;;7.80;1.55;;;29.10;99.90;;;;;;4975710;28;20023;-76
2022/05/27 09:24:16;;;;;;;7.22;1.42;;;31.40;99.90;;;;;;4974997;28;20509;-77
2022/05/27 09:26:43;;;;;;;5.15;1.20;;;32.60;99.90;;;;;;4975959;28;20113;-76
2022/05/27 09:29:37;;;;;;;8.25;1.45;;;32.70;99.90;;;;;;4976035;28;20146;-76
2022/05/27 09:32:25;;;;;;;5.00;1.13;;;33.30;99.90;;;;;;4975855;28;20030;-76
2022/05/27 09:34:53;;;;;;;3.78;1.23;;;30.40;99.90;;;;;;4975727;28;20382;-76
2022/05/27 09:37:31;;;;;;;5.78;0.98;;;33.10;99.90;;;;;;4975634;28;20019;-76
2022/05/27 09:40:01;;;;;;;11.80;1.35;;;29.30;99.90;;;;;;4975636;28;20047;-77
2022/05/27 09:42:42;;;;;;;7.93;1.40;;;27.50;99.90;;;;;;4975572;28;20372;-76
2022/05/27 09:45:08;;;;;;;7.45;1.50;;;30.40;99.90;;;;;;4975776;28;20038;-76
2022/05/27 09:47:35;;;;;;;6.03;1.30;;;31.60;99.90;;;;;;4975545;28;20031;-76
2022/05/27 09:50:22;;;;;;;7.47;1.75;;;31.50;99.90;;;;;;4975346;28;20143;-76
2022/05/27 09:52:49;;;;;;;8.10;2.00;;;33.10;99.90;;;;;;4956221;29;20085;-76
2022/05/27 09:55:46;;;;;;;3.80;1.20;;;29.40;99.90;;;;;;4956001;29;20510;-76
2022/05/27 09:58:12;;;;;;;6.07;2.03;;;25.10;99.90;;;;;;4971709;28;20022;-77
2022/05/27 10:00:49;;;;;;;12.48;2.05;;;23.70;99.90;;;;;;4986259;28;20121;-77
2022/05/27 10:03:36;;;;;;;6.78;1.88;;;28.60;99.90;;;;;;4991839;28;20069;-75
2022/05/27 10:06:10;;;;;;;4.55;1.50;;;27.50;99.90;;;;;;4994802;28;20018;-76
2022/05/27 10:08:38;;;;;;;5.97;1.92;;;25.50;99.90;;;;;;4994448;28;20022;-75
2022/05/27 10:11:16;;;;;;;6.32;1.55;;;24.90;99.90;;;;;;4994474;28;20478;-76
2022/05/27 10:13:43;;;;;;;6.15;1.98;;;27.20;99.90;;;;;;4994496;28;20036;-77
2022/05/27 10:16:13;;;;;;;6.05;1.85;;;24.50;99.90;;;;;;4994412;28;20035;-76
2022/05/27 10:18:44;;;;;;;9.15;1.55;;;25.40;99.90;;;;;;4994421;28;20054;-75
2022/05/27 10:21:10;;;;;;;5.43;1.73;;;23.00;99.90;;;;;;4994437;28;20502;-76
2022/05/27 10:23:38;;;;;;;5.72;1.50;;;23.50;99.90;;;;;;4994381;28;20022;-77
2022/05/27 10:26:23;;;;;;;9.30;1.85;;;22.70;99.90;;;;;;4994138;28;20018;-76
2022/05/27 10:29:12;;;;;;;6.80;1.73;;;24.20;99.90;;;;;;4994205;28;20046;-77
2022/05/27 10:31:49;;;;;;;8.93;1.70;;;21.70;99.90;;;;;;4994173;28;20425;-77
2022/05/27 10:34:42;;;;;;;7.05;1.30;;;24.20;99.90;;;;;;4993608;28;20025;-75
2022/05/27 10:37:32;;;;;;;6.40;1.50;;;22.50;99.90;;;;;;4994003;28;20072;-76
2022/05/27 10:40:15;;;;;;;10.90;2.22;;;20.90;99.90;;;;;;4994233;28;20035;-76
2022/05/27 10:43:01;;;;;;;6.10;1.20;;;21.70;99.90;;;;;;4993951;28;20179;-76
2022/05/27 10:45:45;;;;;;;7.45;1.92;;;27.00;99.90;;;;;;4994065;28;20033;-76
2022/05/27 10:48:29;;;;;;;9.10;2.05;;;24.90;99.90;;;;;;4983488;28;20023;-74
2022/05/27 10:51:48;;;;;;;7.80;1.88;;;23.50;99.90;;;;;;4992099;28;20599;-73
2022/05/27 10:54:31;;;;;;;6.35;1.55;;;24.40;99.90;;;;;;4893502;29;20042;-76
2022/05/27 11:03:20;;;;;;;7.28;1.60;;;22.70;99.90;;;;;;4982010;28;20085;-76
2022/05/27 11:06:09;;;;;;;7.35;1.88;;;24.00;99.90;;;;;;4992027;28;20050;-77
2022/05/27 11:08:50;;;;;;;6.45;1.65;;;24.00;99.90;;;;;;4993277;28;20026;-77
2022/05/27 11:11:37;;;;;;;8.93;1.58;;;22.00;99.90;;;;;;4996707;28;20026;-78
2022/05/27 11:17:10;;;;;;;7.40;1.42;;;21.00;99.90;;;;;;5002957;28;20155;-77
2022/05/27 11:19:59;;;;;;;7.60;1.67;;;20.70;99.90;;;;;;4991512;28;20034;-76
2022/05/27 11:22:50;;;;;;;9.10;1.90;;;20.30;99.90;;;;;;4981837;28;20026;-78
2022/05/27 11:25:31;;;;;;;7.32;1.85;;;19.90;99.90;;;;;;4992927;28;20046;-76
2022/05/27 11:28:35;;;;;;;6.45;1.33;;;19.60;99.90;;;;;;5003029;28;20453;-77
2022/05/27 11:31:11;;;;;;;6.50;1.70;;;20.50;99.90;;;;;;4968276;28;20037;-77
2022/05/27 11:33:53;;;;;;;7.25;1.73;;;20.10;99.90;;;;;;5000549;28;20116;-77
2022/05/27 11:36:50;;;;;;;7.68;1.45;;;20.90;99.90;;;;;;5005163;28;20097;-78
2022/05/27 11:39:30;;;;;;;8.07;1.63;;;20.80;99.90;;;;;;4951584;28;20490;-77
2022/05/27 11:42:28;;;;;;;6.15;1.65;;;21.00;99.90;;;;;;4972091;28;20058;-77
2022/05/27 11:45:21;;;;;;;8.65;1.77;;;20.40;99.90;;;;;;4972047;28;20027;-79
2022/05/27 11:48:06;;;;;;;8.93;1.77;;;20.00;99.90;;;;;;4984791;28;20416;-76
2022/05/27 11:50:53;;;;;;;8.13;1.50;;;19.60;99.90;;;;;;4991383;28;20030;-76
2022/05/27 11:53:39;;;;;;;7.40;1.88;;;19.50;99.90;;;;;;4991344;28;20028;-77
2022/05/27 11:56:11;;;;;;;6.07;1.30;;;19.60;99.90;;;;;;4991015;28;20034;-76
2022/05/27 11:58:59;;;;;;;7.68;1.48;;;19.20;99.90;;;;;;4991069;28;20058;-75
2022/05/27 12:01:28;;;;;;;7.75;1.60;;;19.60;99.90;;;;;;4971889;28;20055;-76
2022/05/27 12:04:12;;;;;;;7.43;1.33;;;19.80;99.90;;;;;;4971726;28;20603;-77
2022/05/27 12:07:11;;;;;;;7.90;1.58;;;20.10;99.90;;;;;;4954426;28;20042;-77
2022/05/27 12:09:49;;;;;;;4.28;1.15;;;19.30;99.90;;;;;;4950001;28;20097;-77
2022/05/27 12:12:26;;;;;;;6.45;1.73;;;19.40;99.90;;;;;;4973424;28;20490;-78
2022/05/27 12:14:55;;;;;;;11.07;1.48;;;19.30;99.90;;;;;;4973407;28;20086;-78
2022/05/27 12:17:28;;;;;;;9.93;1.67;;;19.40;99.90;;;;;;4973389;28;20030;-77
2022/05/27 12:20:03;;;;;;;6.25;1.50;;;20.30;99.90;;;;;;4956944;28;20045;-76
2022/05/27 12:22:33;;;;;;;8.52;1.60;;;19.30;99.90;;;;;;4973241;28;20550;-76
2022/05/27 12:25:14;;;;;;;10.15;1.63;;;19.50;99.90;;;;;;4973412;28;20023;-76
2022/05/27 12:27:40;;;;;;;13.60;2.38;;;19.80;99.90;;;;;;4973274;28;20026;-77
2022/05/27 12:30:08;;;;;;;10.63;1.80;;;20.40;99.90;;;;;;4979319;28;20058;-76
2022/05/27 12:32:37;;;;;;;7.13;1.92;;;20.60;99.90;;;;;;4974237;28;20023;-76
2022/05/27 12:35:42;;;;;;;7.20;1.53;;;20.40;99.90;;;;;;4976647;28;20502;-77
2022/05/27 12:38:21;;;;;;;6.53;1.30;;;20.80;99.90;;;;;;4947360;28;20316;-76
2022/05/27 12:40:58;;;;;;;9.20;1.83;;;19.90;99.90;;;;;;4954542;28;20134;-77
2022/05/27 12:43:37;;;;;;;12.15;1.73;;;20.00;99.90;;;;;;4973961;28;20030;-80
2022/05/27 12:46:02;;;;;;;7.10;1.30;;;19.80;99.90;;;;;;4971705;28;20097;-77
2022/05/27 12:48:40;;;;;;;5.45;1.35;;;20.10;99.90;;;;;;4971679;28;20067;-77
2022/05/27 12:51:18;;;;;;;9.35;1.50;;;19.90;99.90;;;;;;4971819;28;20023;-76
2022/05/27 12:53:44;;;;;;;9.32;1.77;;;19.40;99.90;;;;;;4972260;28;20027;-74
2022/05/27 13:02:14;;;;;;;7.18;1.40;;;21.00;99.90;;;;;;4994665;28;20069;-78
2022/05/27 13:04:47;;;;;;;8.93;1.30;;;20.80;99.90;;;;;;4994617;28;20031;-75
2022/05/27 13:07:14;;;;;;;10.60;2.13;;;20.10;99.90;;;;;;4994932;28;20125;-77
2022/05/27 13:09:46;;;;;;;7.35;2.08;;;20.30;99.90;;;;;;4994222;28;20034;-78
2022/05/27 13:12:48;;;;;;;6.88;1.33;;;21.10;99.90;;;;;;4994501;28;20018;-75
2022/05/27 13:15:29;;;;;;;9.77;1.77;;;20.30;99.90;;;;;;4994424;28;20050;-78
2022/05/27 13:18:29;;;;;;;26.48;4.35;;;19.40;99.90;;;;;;4974808;28;20038;-77
2022/05/27 13:21:19;;;;;;;4.72;1.02;;;19.90;99.90;;;;;;4949675;28;20046;-79
2022/05/27 13:24:00;;;;;;;9.98;2.10;;;19.40;99.90;;;;;;4974940;28;20139;-78
2022/05/27 13:26:45;;;;;;;6.95;1.60;;;19.70;99.90;;;;;;4974859;28;20031;-80
2022/05/27 13:29:23;;;;;;;9.23;1.27;;;19.10;99.90;;;;;;4975824;28;20034;-80
2022/05/27 13:31:50;;;;;;;12.65;1.80;;;19.20;99.90;;;;;;4975262;28;20422;-77
2022/05/27 13:34:24;;;;;;;11.55;1.80;;;18.70;99.90;;;;;;4974840;28;20030;-78
2022/05/27 13:37:00;;;;;;;7.63;1.25;;;18.80;99.90;;;;;;4989549;28;20034;-78
2022/05/27 13:39:37;;;;;;;8.23;1.52;;;18.00;99.90;;;;;;4978737;28;20030;-77
2022/05/27 13:42:03;;;;;;;9.35;1.27;;;18.30;99.90;;;;;;4994090;28;20046;-77
2022/05/27 13:44:29;;;;;;;12.52;1.70;;;18.50;99.90;;;;;;4993601;28;20022;-78
2022/05/27 13:46:59;;;;;;;10.13;1.30;;;19.00;99.90;;;;;;4995155;28;20093;-76
2022/05/27 13:49:33;;;;;;;9.05;2.15;;;18.40;99.90;;;;;;4994781;28;20425;-75
2022/05/27 13:52:01;;;;;;;8.73;1.42;;;18.00;99.90;;;;;;4995060;28;20065;-76
2022/05/27 13:54:38;;;;;;;5.22;0.77;;;17.70;99.90;;;;;;4995951;28;20026;-76
2022/05/27 13:57:11;;;;;;;8.93;1.08;;;18.00;99.90;;;;;;4995451;28;20553;-76